Time;durP1;ratioP1;P1;durP2;ratioP2;P2;SDS_P1;SDS_P2;PMS_P1;PMS_P2;Temp;Humidity;BMP_temperature;BMP_pressure;BME280_temperature;BME280_humidity;BME280_pressure;Samples;Min_cycle;Max_cycle;Signal;HPM_P1;HPM_P2
2024/04/20 00:01:24;;;;;;;6.60;2.50;;;;;;;;;;4977698;28;20376;-74
2024/04/20 00:03:55;;;;;;;6.07;2.10;;;;;;;;;;4974288;28;20026;-74
2024/04/20 00:06:28;;;;;;;8.10;1.75;;;;;;;;;;4976185;28;20004;-74
2024/04/20 00:09:01;;;;;;;4.53;1.98;;;;;;;;;;4979169;28;20984;-74
2024/04/20 00:11:34;;;;;;;7.82;2.47;;;;;;;;;;4978897;28;20048;-74
2024/04/20 00:14:04;;;;;;;5.53;2.30;;;;;;;;;;4978624;28;20019;-76
2024/04/20 00:16:35;;;;;;;5.20;1.88;;;;;;;;;;4981145;28;20022;-73
2024/04/20 00:19:07;;;;;;;3.30;1.85;;;;;;;;;;4981676;28;20036;-73
2024/04/20 00:21:38;;;;;;;8.35;2.33;;;;;;;;;;4981890;28;20017;-74
2024/04/20 00:24:09;;;;;;;6.05;2.28;;;;;;;;;;4982310;28;20015;-73
2024/04/20 00:26:40;;;;;;;7.05;2.65;;;;;;;;;;4979713;28;20558;-73
2024/04/20 00:29:12;;;;;;;4.57;2.85;;;;;;;;;;4979492;28;20484;-73
2024/04/20 00:31:43;;;;;;;7.25;2.55;;;;;;;;;;4981995;28;20041;-72
2024/04/20 00:34:13;;;;;;;3.60;2.42;;;;;;;;;;4982068;28;20044;-73
2024/04/20 00:36:46;;;;;;;5.85;2.25;;;;;;;;;;4981881;28;20008;-73
2024/04/20 00:39:17;;;;;;;4.40;2.55;;;;;;;;;;4978967;28;20459;-73
2024/04/20 00:41:48;;;;;;;6.57;2.70;;;;;;;;;;4976763;28;21123;-73
2024/04/20 00:44:19;;;;;;;6.38;3.30;;;;;;;;;;4979930;28;20015;-74
2024/04/20 00:47:01;;;;;;;4.88;3.45;;;;;;;;;;4981364;28;20032;-73
2024/04/20 00:49:33;;;;;;;8.15;2.70;;;;;;;;;;4981940;28;20004;-73
2024/04/20 00:52:05;;;;;;;3.25;2.03;;;;;;;;;;4982187;28;20028;-72
2024/04/20 00:54:37;;;;;;;10.95;2.47;;;;;;;;;;4981630;28;20037;-72
2024/04/20 00:57:09;;;;;;;5.35;2.72;;;;;;;;;;4982113;28;20004;-73
2024/04/20 00:59:41;;;;;;;7.38;2.42;;;;;;;;;;4982418;28;20489;-74
2024/04/20 01:02:13;;;;;;;7.43;2.90;;;;;;;;;;4980910;28;20033;-73
2024/04/20 01:04:43;;;;;;;5.90;2.88;;;;;;;;;;4981272;28;20481;-73
2024/04/20 01:07:14;;;;;;;5.50;2.70;;;;;;;;;;4981716;28;20040;-72
2024/04/20 01:09:45;;;;;;;5.70;2.55;;;;;;;;;;4981652;28;20044;-72
2024/04/20 01:12:15;;;;;;;3.72;2.28;;;;;;;;;;4979919;28;20011;-75
2024/04/20 01:14:46;;;;;;;3.78;2.00;;;;;;;;;;4981447;28;20693;-74
2024/04/20 01:17:17;;;;;;;5.93;2.65;;;;;;;;;;4981160;28;20007;-73
2024/04/20 01:19:48;;;;;;;5.47;2.00;;;;;;;;;;4978333;28;20350;-75
2024/04/20 01:22:18;;;;;;;12.40;2.20;;;;;;;;;;4981392;28;20028;-74
2024/04/20 01:24:53;;;;;;;2.25;1.67;;;;;;;;;;4981663;28;20032;-74
2024/04/20 01:27:24;;;;;;;6.30;2.05;;;;;;;;;;4981415;28;20036;-74
2024/04/20 01:29:55;;;;;;;4.38;1.92;;;;;;;;;;4981498;28;20028;-74
2024/04/20 01:32:29;;;;;;;2.90;1.85;;;;;;;;;;4980901;28;20473;-74
2024/04/20 01:34:59;;;;;;;4.95;2.22;;;;;;;;;;4981073;28;20501;-74
2024/04/20 01:37:30;;;;;;;2.92;1.70;;;;;;;;;;4979557;28;20456;-74
2024/04/20 01:40:01;;;;;;;4.70;1.85;;;;;;;;;;4980884;28;20376;-74
2024/04/20 01:42:32;;;;;;;5.40;1.75;;;;;;;;;;4955356;28;20037;-75
2024/04/20 01:45:03;;;;;;;5.53;1.55;;;;;;;;;;4981078;28;20037;-73
2024/04/20 01:47:34;;;;;;;7.03;1.88;;;;;;;;;;4980821;28;20040;-74
2024/04/20 01:50:05;;;;;;;3.08;1.55;;;;;;;;;;4981092;28;20822;-74
2024/04/20 01:52:37;;;;;;;1.75;1.38;;;;;;;;;;4979189;28;20004;-73
2024/04/20 01:55:07;;;;;;;5.55;1.77;;;;;;;;;;4980921;28;20029;-73
2024/04/20 01:57:39;;;;;;;7.45;1.52;;;;;;;;;;4980547;28;20445;-72
2024/04/20 02:00:10;;;;;;;3.70;1.73;;;;;;;;;;4981050;28;20835;-74
2024/04/20 02:02:41;;;;;;;3.80;1.90;;;;;;;;;;4981254;28;20033;-81
2024/04/20 02:05:11;;;;;;;4.57;1.42;;;;;;;;;;4980326;28;20040;-75
2024/04/20 02:07:43;;;;;;;8.82;1.88;;;;;;;;;;4980211;28;20029;-73
2024/04/20 02:10:14;;;;;;;12.10;2.00;;;;;;;;;;4980483;28;21168;-72
2024/04/20 02:12:44;;;;;;;5.75;1.73;;;;;;;;;;4980480;28;20482;-72
2024/04/20 02:15:15;;;;;;;4.78;1.92;;;;;;;;;;4980947;28;20674;-72
2024/04/20 02:17:45;;;;;;;5.30;1.60;;;;;;;;;;4980634;28;20045;-72
2024/04/20 02:20:17;;;;;;;3.55;1.75;;;;;;;;;;4981973;28;20045;-72
2024/04/20 02:22:47;;;;;;;5.30;1.63;;;;;;;;;;4980895;28;20748;-72
2024/04/20 02:25:17;;;;;;;4.63;1.63;;;;;;;;;;4980646;28;20041;-73
2024/04/20 02:27:48;;;;;;;8.25;2.00;;;;;;;;;;4980220;28;20028;-74
2024/04/20 02:30:19;;;;;;;3.55;1.67;;;;;;;;;;4977328;28;20038;-75
2024/04/20 02:32:50;;;;;;;6.15;1.52;;;;;;;;;;4978995;28;20000;-73
2024/04/20 02:35:21;;;;;;;2.13;1.48;;;;;;;;;;4978513;28;21037;-73
2024/04/20 02:37:51;;;;;;;3.25;1.60;;;;;;;;;;4980917;28;20008;-75
2024/04/20 02:40:22;;;;;;;3.35;1.67;;;;;;;;;;4980236;28;20030;-74
2024/04/20 02:42:53;;;;;;;6.53;1.67;;;;;;;;;;4979937;28;20028;-74
2024/04/20 02:45:23;;;;;;;6.32;1.60;;;;;;;;;;4978803;28;20481;-72
2024/04/20 02:47:53;;;;;;;2.08;1.42;;;;;;;;;;4980279;28;20032;-72
2024/04/20 02:50:25;;;;;;;4.53;1.80;;;;;;;;;;4980199;28;20044;-73
2024/04/20 02:52:55;;;;;;;5.68;1.88;;;;;;;;;;4980657;28;20858;-73
2024/04/20 02:55:25;;;;;;;6.78;1.80;;;;;;;;;;4980572;28;20036;-73
2024/04/20 02:57:56;;;;;;;2.67;1.50;;;;;;;;;;4980198;28;20004;-73
2024/04/20 03:00:28;;;;;;;3.78;1.58;;;;;;;;;;4978093;28;20010;-72
2024/04/20 03:02:58;;;;;;;2.03;1.50;;;;;;;;;;4978153;28;20019;-72
2024/04/20 03:05:29;;;;;;;3.28;1.55;;;;;;;;;;4978204;28;20033;-74
2024/04/20 03:07:59;;;;;;;4.95;1.98;;;;;;;;;;4980590;28;20052;-73
2024/04/20 03:10:29;;;;;;;1.92;1.35;;;;;;;;;;4980622;28;20040;-73
2024/04/20 03:13:00;;;;;;;4.47;1.67;;;;;;;;;;4980598;28;20032;-73
2024/04/20 03:15:31;;;;;;;2.78;1.70;;;;;;;;;;4977980;28;20573;-73
2024/04/20 03:18:03;;;;;;;3.85;1.88;;;;;;;;;;4979330;28;20349;-73
2024/04/20 03:20:34;;;;;;;3.05;1.98;;;;;;;;;;4979582;28;20040;-72
2024/04/20 03:23:05;;;;;;;5.63;2.22;;;;;;;;;;4979733;28;20833;-72
2024/04/20 03:25:35;;;;;;;6.55;1.77;;;;;;;;;;4979588;28;20032;-72
2024/04/20 03:28:07;;;;;;;5.72;2.20;;;;;;;;;;4979893;28;20037;-73
2024/04/20 03:30:38;;;;;;;4.60;1.95;;;;;;;;;;4977752;28;20004;-72
2024/04/20 03:33:09;;;;;;;5.88;1.73;;;;;;;;;;4979632;28;20406;-72
2024/04/20 03:35:40;;;;;;;2.90;1.65;;;;;;;;;;4979443;28;20052;-73
2024/04/20 03:38:10;;;;;;;2.35;1.70;;;;;;;;;;4978103;28;20008;-73
2024/04/20 03:40:41;;;;;;;2.97;1.60;;;;;;;;;;4980123;28;20390;-73
2024/04/20 03:43:14;;;;;;;5.28;1.73;;;;;;;;;;4979475;28;20029;-72
2024/04/20 03:45:54;;;;;;;6.70;1.95;;;;;;;;;;4980092;28;20045;-73
2024/04/20 03:48:27;;;;;;;3.17;1.45;;;;;;;;;;4979577;28;20028;-74
2024/04/20 03:50:59;;;;;;;3.70;1.45;;;;;;;;;;4977103;28;20056;-73
2024/04/20 03:53:30;;;;;;;4.07;1.60;;;;;;;;;;4978628;28;20005;-73
2024/04/20 03:56:00;;;;;;;3.35;1.55;;;;;;;;;;4979828;28;20041;-72
2024/04/20 03:58:30;;;;;;;6.65;1.50;;;;;;;;;;4979416;28;20041;-72
2024/04/20 04:01:01;;;;;;;3.78;1.85;;;;;;;;;;4979273;28;20028;-73
2024/04/20 04:03:32;;;;;;;3.92;1.52;;;;;;;;;;4979363;28;20046;-73
2024/04/20 04:06:03;;;;;;;3.60;1.80;;;;;;;;;;4977602;28;20338;-73
2024/04/20 04:08:34;;;;;;;8.25;1.67;;;;;;;;;;4979503;28;20501;-73
2024/04/20 04:11:04;;;;;;;4.82;1.60;;;;;;;;;;4979310;28;20029;-72
2024/04/20 04:13:34;;;;;;;4.00;1.67;;;;;;;;;;4979098;28;20029;-72
2024/04/20 04:16:06;;;;;;;5.43;2.10;;;;;;;;;;4979255;28;20041;-73
2024/04/20 04:18:37;;;;;;;3.08;1.60;;;;;;;;;;4979152;28;20019;-72
2024/04/20 04:21:10;;;;;;;3.03;1.52;;;;;;;;;;4978932;28;20797;-73
2024/04/20 04:23:42;;;;;;;3.22;1.77;;;;;;;;;;4978472;28;20481;-72
2024/04/20 04:26:13;;;;;;;8.20;1.35;;;;;;;;;;4978885;28;20040;-73
2024/04/20 04:28:44;;;;;;;2.28;1.58;;;;;;;;;;4978576;28;20032;-73
2024/04/20 04:31:15;;;;;;;5.57;1.90;;;;;;;;;;4976922;28;20015;-73
2024/04/20 04:33:48;;;;;;;3.70;1.63;;;;;;;;;;4979716;28;20033;-72
2024/04/20 04:36:18;;;;;;;6.93;1.52;;;;;;;;;;4979538;28;20032;-73
2024/04/20 04:38:48;;;;;;;2.60;1.55;;;;;;;;;;4979139;28;20046;-72
2024/04/20 04:41:18;;;;;;;6.90;1.90;;;;;;;;;;4978018;28;20009;-73
2024/04/20 04:43:48;;;;;;;6.60;1.42;;;;;;;;;;4978418;28;20033;-73
2024/04/20 04:46:19;;;;;;;4.75;1.75;;;;;;;;;;4977894;28;20032;-73
2024/04/20 04:48:51;;;;;;;4.38;1.80;;;;;;;;;;4978100;28;20005;-73
2024/04/20 04:51:22;;;;;;;2.97;1.70;;;;;;;;;;4979562;28;20036;-73
2024/04/20 04:53:53;;;;;;;2.97;1.40;;;;;;;;;;4979307;28;20040;-73
2024/04/20 04:56:24;;;;;;;5.10;1.63;;;;;;;;;;4981477;28;20041;-73
2024/04/20 04:58:57;;;;;;;2.58;1.60;;;;;;;;;;4979784;28;20352;-72
2024/04/20 05:01:28;;;;;;;4.65;1.42;;;;;;;;;;4981985;28;20041;-72
2024/04/20 05:03:58;;;;;;;5.90;1.98;;;;;;;;;;4981479;28;20032;-73
2024/04/20 05:06:29;;;;;;;3.78;1.83;;;;;;;;;;4981099;28;20049;-72
2024/04/20 05:09:00;;;;;;;4.80;1.90;;;;;;;;;;4979450;28;20004;-74
2024/04/20 05:11:31;;;;;;;2.42;1.58;;;;;;;;;;4979340;28;20044;-72
2024/04/20 05:14:01;;;;;;;4.13;1.58;;;;;;;;;;4981555;28;20812;-73
2024/04/20 05:16:32;;;;;;;3.60;1.70;;;;;;;;;;4979667;28;20352;-73
2024/04/20 05:19:03;;;;;;;2.05;1.30;;;;;;;;;;4981398;28;20056;-73
2024/04/20 05:21:34;;;;;;;2.90;1.48;;;;;;;;;;4981417;28;20341;-73
2024/04/20 05:24:04;;;;;;;3.22;1.52;;;;;;;;;;4982094;28;20337;-73
2024/04/20 05:26:36;;;;;;;2.85;1.50;;;;;;;;;;4981304;28;20056;-73
2024/04/20 05:29:06;;;;;;;4.72;1.90;;;;;;;;;;4981355;28;20036;-73
2024/04/20 05:31:37;;;;;;;6.68;1.70;;;;;;;;;;4980685;28;20029;-74
2024/04/20 05:34:07;;;;;;;3.65;1.83;;;;;;;;;;4981026;28;20015;-72
2024/04/20 05:36:38;;;;;;;3.50;1.52;;;;;;;;;;4981169;28;20476;-72
2024/04/20 05:39:08;;;;;;;3.97;2.13;;;;;;;;;;4981276;28;20011;-73
2024/04/20 05:41:38;;;;;;;4.53;1.52;;;;;;;;;;4979908;28;20482;-72
2024/04/20 05:44:09;;;;;;;3.53;1.65;;;;;;;;;;4980636;28;20377;-73
2024/04/20 05:46:39;;;;;;;2.83;1.60;;;;;;;;;;4978063;28;20008;-73
2024/04/20 05:49:10;;;;;;;4.00;1.90;;;;;;;;;;4980786;28;20036;-73
2024/04/20 05:51:41;;;;;;;4.45;1.83;;;;;;;;;;4979769;28;20004;-74
2024/04/20 05:54:12;;;;;;;2.50;1.60;;;;;;;;;;4981256;28;20015;-73
2024/04/20 05:56:43;;;;;;;7.00;1.77;;;;;;;;;;4981853;28;20044;-74
2024/04/20 05:59:13;;;;;;;3.45;1.90;;;;;;;;;;4981135;28;20814;-73
2024/04/20 06:01:44;;;;;;;3.83;2.08;;;;;;;;;;4978744;28;20348;-73
2024/04/20 06:04:16;;;;;;;6.55;2.20;;;;;;;;;;4980813;28;20498;-72
2024/04/20 06:06:46;;;;;;;3.90;1.80;;;;;;;;;;4981303;28;20048;-73
2024/04/20 06:09:18;;;;;;;4.43;1.88;;;;;;;;;;4980513;28;20040;-73
2024/04/20 06:11:48;;;;;;;5.38;1.70;;;;;;;;;;4979003;28;20040;-73
2024/04/20 06:14:20;;;;;;;7.40;2.00;;;;;;;;;;4980967;28;20033;-73
2024/04/20 06:16:50;;;;;;;4.20;1.83;;;;;;;;;;4980897;28;20032;-73
2024/04/20 06:19:20;;;;;;;3.35;1.80;;;;;;;;;;4980307;28;20015;-73
2024/04/20 06:21:51;;;;;;;6.32;2.10;;;;;;;;;;4980374;28;20032;-72
2024/04/20 06:24:22;;;;;;;4.15;1.85;;;;;;;;;;4980815;28;20032;-73
2024/04/20 06:26:53;;;;;;;2.28;1.52;;;;;;;;;;4980157;28;20036;-73
2024/04/20 06:29:26;;;;;;;3.80;1.85;;;;;;;;;;4980185;28;20063;-73
2024/04/20 06:31:58;;;;;;;4.75;1.92;;;;;;;;;;4980550;28;20040;-72
2024/04/20 06:34:31;;;;;;;5.22;1.77;;;;;;;;;;4980441;28;20037;-73
2024/04/20 06:37:01;;;;;;;3.50;1.77;;;;;;;;;;4980374;28;20009;-72
2024/04/20 06:39:34;;;;;;;3.25;1.85;;;;;;;;;;4980260;28;20008;-72
2024/04/20 06:42:05;;;;;;;3.38;1.80;;;;;;;;;;4980540;28;20036;-72
2024/04/20 06:44:35;;;;;;;4.18;1.90;;;;;;;;;;4980283;28;20884;-73
2024/04/20 06:47:06;;;;;;;3.92;1.55;;;;;;;;;;4978335;28;20651;-73
2024/04/20 06:49:37;;;;;;;3.63;1.55;;;;;;;;;;4980838;28;20037;-73
2024/04/20 06:52:09;;;;;;;3.75;1.75;;;;;;;;;;4980685;28;20040;-73
2024/04/20 06:54:42;;;;;;;3.67;1.80;;;;;;;;;;4980831;28;20041;-72
2024/04/20 06:57:12;;;;;;;3.22;1.67;;;;;;;;;;4980290;28;20373;-73
2024/04/20 06:59:42;;;;;;;6.20;1.70;;;;;;;;;;4979768;28;20005;-73
2024/04/20 07:02:14;;;;;;;3.05;1.77;;;;;;;;;;4980258;28;20040;-73
2024/04/20 07:04:44;;;;;;;3.13;2.03;;;;;;;;;;4980048;28;20036;-74
2024/04/20 07:07:15;;;;;;;2.83;1.70;;;;;;;;;;4979913;28;20320;-73
2024/04/20 07:09:51;;;;;;;2.65;1.80;;;;;;;;;;4979807;28;20040;-74
2024/04/20 07:12:22;;;;;;;3.00;1.75;;;;;;;;;;4980049;28;20004;-74
2024/04/20 07:14:53;;;;;;;5.88;1.52;;;;;;;;;;4980338;28;20033;-73
2024/04/20 07:17:23;;;;;;;4.03;1.95;;;;;;;;;;4979657;28;20036;-73
2024/04/20 07:19:53;;;;;;;3.38;2.00;;;;;;;;;;4978948;28;20008;-73
2024/04/20 07:22:24;;;;;;;3.90;1.90;;;;;;;;;;4980569;28;20485;-74
2024/04/20 07:24:55;;;;;;;2.40;1.65;;;;;;;;;;4978059;28;20486;-73
2024/04/20 07:27:26;;;;;;;4.80;1.52;;;;;;;;;;4979293;28;20663;-73
2024/04/20 07:29:56;;;;;;;3.30;1.98;;;;;;;;;;4980458;28;20115;-73
2024/04/20 07:32:26;;;;;;;4.20;1.83;;;;;;;;;;4980012;28;20028;-74
2024/04/20 07:34:57;;;;;;;4.72;1.88;;;;;;;;;;4977654;28;20019;-73
2024/04/20 07:37:29;;;;;;;3.88;1.35;;;;;;;;;;4979877;28;20127;-73
2024/04/20 07:40:00;;;;;;;6.93;1.63;;;;;;;;;;4979837;28;20015;-74
2024/04/20 07:42:30;;;;;;;5.38;1.90;;;;;;;;;;4980063;28;20394;-73
2024/04/20 07:45:00;;;;;;;3.70;1.65;;;;;;;;;;4979205;28;20033;-72
2024/04/20 07:47:31;;;;;;;6.47;1.67;;;;;;;;;;4979186;28;20004;-73
2024/04/20 07:50:02;;;;;;;5.03;1.77;;;;;;;;;;4980035;28;20040;-74
2024/04/20 07:52:33;;;;;;;5.22;1.70;;;;;;;;;;4979174;28;20028;-73
2024/04/20 07:55:04;;;;;;;2.22;1.63;;;;;;;;;;4979469;28;20028;-73
2024/04/20 07:57:35;;;;;;;5.45;1.85;;;;;;;;;;4978757;28;20032;-74
2024/04/20 08:00:06;;;;;;;13.57;2.30;;;;;;;;;;4979431;28;20506;-72
2024/04/20 08:02:40;;;;;;;4.30;2.08;;;;;;;;;;4978257;28;20015;-72
2024/04/20 08:05:11;;;;;;;12.38;2.30;;;;;;;;;;4979368;28;20036;-73
2024/04/20 08:07:41;;;;;;;7.85;2.40;;;;;;;;;;4979547;28;20033;-73
2024/04/20 08:10:13;;;;;;;7.50;2.20;;;;;;;;;;4979801;28;20037;-74
2024/04/20 08:12:44;;;;;;;10.48;2.28;;;;;;;;;;4979625;28;20036;-74
2024/04/20 08:15:14;;;;;;;2.90;1.63;;;;;;;;;;4977558;28;20398;-73
2024/04/20 08:17:44;;;;;;;5.57;2.08;;;;;;;;;;4979498;28;20015;-73
2024/04/20 08:20:16;;;;;;;5.57;1.80;;;;;;;;;;4978399;28;20015;-73
2024/04/20 08:22:47;;;;;;;4.03;2.13;;;;;;;;;;4979051;28;20001;-74
2024/04/20 08:25:17;;;;;;;7.65;2.15;;;;;;;;;;4977373;28;20005;-74
2024/04/20 08:27:48;;;;;;;2.58;1.90;;;;;;;;;;4979666;28;20028;-73
2024/04/20 08:30:18;;;;;;;5.50;2.13;;;;;;;;;;4980875;28;20015;-74
2024/04/20 08:32:49;;;;;;;3.08;1.88;;;;;;;;;;4981467;28;20038;-74
2024/04/20 08:35:19;;;;;;;4.97;1.90;;;;;;;;;;4982300;28;20052;-74
2024/04/20 08:37:50;;;;;;;4.03;2.10;;;;;;;;;;4981769;28;20029;-74
2024/04/20 08:40:19;;;;;;;5.93;2.50;;;;;;;;;;4982040;28;20377;-74
2024/04/20 08:42:52;;;;;;;8.73;2.63;;;;;;;;;;4981676;28;20036;-75
2024/04/20 08:45:23;;;;;;;4.50;2.17;;;;;;;;;;4981730;28;20036;-74
2024/04/20 08:47:54;;;;;;;7.43;2.33;;;;;;;;;;4981618;28;20037;-74
2024/04/20 08:50:26;;;;;;;3.03;1.98;;;;;;;;;;4981726;28;20004;-73
2024/04/20 08:53:02;;;;;;;3.60;1.70;;;;;;;;;;4980306;28;20052;-74
2024/04/20 08:55:33;;;;;;;4.55;1.75;;;;;;;;;;4979532;28;20004;-73
2024/04/20 08:58:04;;;;;;;3.03;1.73;;;;;;;;;;4982181;28;20032;-74
2024/04/20 09:00:37;;;;;;;4.32;2.05;;;;;;;;;;4982645;28;20024;-74
2024/04/20 09:03:10;;;;;;;4.40;2.10;;;;;;;;;;4981378;28;20774;-73
2024/04/20 09:05:45;;;;;;;7.03;2.13;;;;;;;;;;4981551;28;20052;-74
2024/04/20 09:08:16;;;;;;;6.63;2.08;;;;;;;;;;4979692;28;20004;-74
2024/04/20 09:10:46;;;;;;;5.05;2.00;;;;;;;;;;4981328;28;20686;-73
2024/04/20 09:13:18;;;;;;;3.92;2.08;;;;;;;;;;4981614;28;20029;-73
2024/04/20 09:15:49;;;;;;;3.42;1.88;;;;;;;;;;4981883;28;20032;-74
2024/04/20 09:18:19;;;;;;;6.93;2.13;;;;;;;;;;4981020;28;20032;-73
2024/04/20 09:20:53;;;;;;;3.80;1.90;;;;;;;;;;4981154;28;20397;-74
2024/04/20 09:23:23;;;;;;;4.40;2.03;;;;;;;;;;4979119;28;20464;-75
2024/04/20 09:25:54;;;;;;;3.95;1.70;;;;;;;;;;4982133;28;20052;-73
2024/04/20 09:28:28;;;;;;;3.22;1.75;;;;;;;;;;4981945;28;20028;-72
2024/04/20 09:30:59;;;;;;;5.72;1.98;;;;;;;;;;4981231;28;20015;-73
2024/04/20 09:33:30;;;;;;;6.68;2.22;;;;;;;;;;4978750;28;20004;-73
2024/04/20 09:36:00;;;;;;;3.83;2.05;;;;;;;;;;4981101;28;20004;-73
2024/04/20 09:38:31;;;;;;;8.32;2.65;;;;;;;;;;4979294;28;20022;-75
2024/04/20 09:41:02;;;;;;;5.18;1.92;;;;;;;;;;4981301;28;20380;-74
2024/04/20 09:43:34;;;;;;;4.93;1.95;;;;;;;;;;4980769;28;20033;-73
2024/04/20 09:46:05;;;;;;;2.45;1.58;;;;;;;;;;4980856;28;20015;-74
2024/04/20 09:48:37;;;;;;;7.65;2.38;;;;;;;;;;4981073;28;20005;-73
2024/04/20 09:51:37;;;;;;;5.97;2.85;;;;;;;;;;4979319;28;20004;-74
2024/04/20 09:54:18;;;;;;;9.88;2.65;;;;;;;;;;4980602;28;20421;-73
2024/04/20 09:56:52;;;;;;;6.85;3.30;;;;;;;;;;4980617;28;20036;-77
2024/04/20 09:59:23;;;;;;;8.90;2.63;;;;;;;;;;4980601;28;20041;-75
2024/04/20 10:01:55;;;;;;;9.50;3.03;;;;;;;;;;4981540;28;20033;-74
2024/04/20 10:04:29;;;;;;;9.30;3.13;;;;;;;;;;4981146;28;20037;-73
2024/04/20 10:07:01;;;;;;;7.68;3.10;;;;;;;;;;4981053;28;20040;-74
2024/04/20 10:09:34;;;;;;;4.85;2.63;;;;;;;;;;4980986;28;20032;-74
2024/04/20 10:12:06;;;;;;;13.25;2.72;;;;;;;;;;4978025;28;20490;-73
2024/04/20 10:14:40;;;;;;;7.43;2.45;;;;;;;;;;4981023;28;20034;-73
2024/04/20 10:17:11;;;;;;;6.80;2.72;;;;;;;;;;4980736;28;20056;-74
2024/04/20 10:19:44;;;;;;;7.90;2.38;;;;;;;;;;4981177;28;20485;-74
2024/04/20 10:22:15;;;;;;;4.18;2.63;;;;;;;;;;4981494;28;20032;-73
2024/04/20 10:25:14;;;;;;;5.75;2.70;;;;;;;;;;4980844;28;20067;-75
2024/04/20 10:27:50;;;;;;;5.88;2.13;;;;;;;;;;4980099;28;20031;-73
2024/04/20 10:30:23;;;;;;;6.78;2.30;;;;;;;;;;4980378;28;20453;-74
2024/04/20 10:33:05;;;;;;;5.03;2.60;;;;;;;;;;4980475;28;20032;-74
2024/04/20 10:35:37;;;;;;;7.85;2.55;;;;;;;;;;4978921;28;20014;-74
2024/04/20 10:38:09;;;;;;;6.32;2.45;;;;;;;;;;4981813;28;20061;-74
2024/04/20 10:40:39;;;;;;;12.25;2.85;;;;;;;;;;4978770;28;20044;-74
2024/04/20 10:43:23;;;;;;;7.00;2.72;;;;;;;;;;4979629;28;20018;-73
2024/04/20 10:46:04;;;;;;;15.25;3.53;;;;;;;;;;4979039;28;20014;-73
2024/04/20 10:48:41;;;;;;;4.50;2.42;;;;;;;;;;4979320;28;20041;-74
2024/04/20 10:51:17;;;;;;;7.15;2.97;;;;;;;;;;4979451;28;20457;-73
2024/04/20 10:53:56;;;;;;;;;;;;;;;;;;4980583;28;20009;-73
2024/04/20 10:56:27;;;;;;;6.35;2.25;;;;;;;;;;4981120;28;19960;-77
2024/04/20 10:58:58;;;;;;;4.32;1.98;;;;;;;;;;4980131;28;20032;-74
2024/04/20 11:01:29;;;;;;;7.43;2.75;;;;;;;;;;4980217;28;20049;-73
2024/04/20 11:04:00;;;;;;;11.45;3.30;;;;;;;;;;4980297;28;20949;-72
2024/04/20 11:06:31;;;;;;;5.38;2.72;;;;;;;;;;4978759;28;20483;-74
2024/04/20 11:09:03;;;;;;;9.25;3.10;;;;;;;;;;4979861;28;20398;-74
2024/04/20 11:11:33;;;;;;;5.88;2.75;;;;;;;;;;4979851;28;20004;-74
2024/04/20 11:14:04;;;;;;;7.75;2.70;;;;;;;;;;4980536;28;20033;-74
2024/04/20 11:16:35;;;;;;;7.78;2.67;;;;;;;;;;4979589;28;20052;-73
2024/04/20 11:19:10;;;;;;;11.27;3.83;;;;;;;;;;4978900;28;20036;-75
2024/04/20 11:21:41;;;;;;;10.85;3.50;;;;;;;;;;4980249;28;20028;-74
2024/04/20 11:24:12;;;;;;;17.08;4.50;;;;;;;;;;4980201;28;20015;-73
2024/04/20 11:26:43;;;;;;;4.90;2.63;;;;;;;;;;4980224;28;20032;-77
2024/04/20 11:29:13;;;;;;;7.03;3.20;;;;;;;;;;4979675;28;20033;-74
2024/04/20 11:31:43;;;;;;;6.07;2.50;;;;;;;;;;4978175;28;20349;-74
2024/04/20 11:34:22;;;;;;;10.32;2.50;;;;;;;;;;4977866;28;20339;-77
2024/04/20 11:36:54;;;;;;;5.47;2.22;;;;;;;;;;4979502;28;20474;-74
2024/04/20 11:39:26;;;;;;;7.35;2.22;;;;;;;;;;4979653;28;20040;-76
2024/04/20 11:42:06;;;;;;;4.63;2.15;;;;;;;;;;4979321;28;20036;-75
2024/04/20 11:44:38;;;;;;;;;;;;;;;;;;4980256;28;20522;-73
2024/04/20 11:47:15;;;;;;;3.47;1.73;;;;;;;;;;4980037;28;19960;-75
2024/04/20 11:49:54;;;;;;;3.13;1.75;;;;;;;;;;4979934;28;20028;-74
2024/04/20 11:55:15;;;;;;;3.67;1.70;;;;;;;;;;4979534;28;20044;-78
2024/04/20 11:57:47;;;;;;;3.45;2.03;;;;;;;;;;4979412;28;20795;-74
2024/04/20 12:00:18;;;;;;;3.63;1.95;;;;;;;;;;4979033;28;20054;-74
2024/04/20 12:02:49;;;;;;;6.28;2.15;;;;;;;;;;4979258;28;20477;-76
2024/04/20 12:05:20;;;;;;;5.72;2.83;;;;;;;;;;4979691;28;20370;-76
2024/04/20 12:07:50;;;;;;;6.20;2.03;;;;;;;;;;4979310;28;20032;-76
2024/04/20 12:10:22;;;;;;;6.47;2.10;;;;;;;;;;4978898;28;20033;-76
2024/04/20 12:12:56;;;;;;;5.88;1.92;;;;;;;;;;4979338;28;20036;-77
2024/04/20 12:15:28;;;;;;;;;;;;;;;;;;4978173;28;20029;-75
2024/04/20 12:17:59;;;;;;;5.13;1.80;;;;;;;;;;4977593;28;19975;-74
2024/04/20 12:20:31;;;;;;;5.25;1.70;;;;;;;;;;4977283;28;20029;-75
2024/04/20 12:23:02;;;;;;;3.35;1.70;;;;;;;;;;4979559;28;20037;-74
2024/04/20 12:25:32;;;;;;;5.20;1.98;;;;;;;;;;4979919;28;20060;-75
2024/04/20 12:28:05;;;;;;;8.82;1.75;;;;;;;;;;4979167;28;20040;-75
2024/04/20 12:30:36;;;;;;;3.30;1.83;;;;;;;;;;4978988;28;20040;-74
2024/04/20 12:33:06;;;;;;;8.90;1.92;;;;;;;;;;4976892;28;20481;-74
2024/04/20 12:35:37;;;;;;;6.38;1.70;;;;;;;;;;4979089;28;20535;-75
2024/04/20 12:38:08;;;;;;;3.50;1.60;;;;;;;;;;4979910;28;20156;-74
2024/04/20 12:40:39;;;;;;;3.72;1.50;;;;;;;;;;4977196;28;20041;-75
2024/04/20 12:43:10;;;;;;;1.80;1.20;;;;;;;;;;4978970;28;20033;-78
2024/04/20 12:45:40;;;;;;;2.35;1.38;;;;;;;;;;4978587;28;20377;-75
2024/04/20 12:48:11;;;;;;;4.20;1.70;;;;;;;;;;4978148;28;20032;-77
2024/04/20 12:50:44;;;;;;;4.93;1.33;;;;;;;;;;4978419;28;20036;-76
2024/04/20 12:53:14;;;;;;;3.25;1.40;;;;;;;;;;4976923;28;20045;-75
2024/04/20 12:55:46;;;;;;;3.38;1.52;;;;;;;;;;4978506;28;20493;-76
2024/04/20 12:58:17;;;;;;;4.55;1.45;;;;;;;;;;4978711;28;20478;-82
2024/04/20 13:00:48;;;;;;;7.07;1.70;;;;;;;;;;4975770;28;20030;-76
2024/04/20 13:03:21;;;;;;;2.00;1.40;;;;;;;;;;4977532;28;20036;-77
2024/04/20 13:05:53;;;;;;;2.17;1.52;;;;;;;;;;4975883;28;20011;-76
2024/04/20 13:08:23;;;;;;;5.70;1.67;;;;;;;;;;4976906;28;20477;-76
2024/04/20 13:10:55;;;;;;;6.57;1.55;;;;;;;;;;4978970;28;20021;-76
2024/04/20 13:13:28;;;;;;;5.80;1.73;;;;;;;;;;4977879;28;20052;-76
2024/04/20 13:15:59;;;;;;;1.77;1.33;;;;;;;;;;4977289;28;20005;-75
2024/04/20 13:18:42;;;;;;;4.10;1.40;;;;;;;;;;4980143;28;20040;-76
2024/04/20 13:21:15;;;;;;;4.55;2.28;;;;;;;;;;4980597;28;20036;-76
2024/04/20 13:23:52;;;;;;;3.17;1.40;;;;;;;;;;4980100;28;20419;-76
2024/04/20 13:26:28;;;;;;;7.57;1.45;;;;;;;;;;4978850;28;20045;-77
2024/04/20 13:29:16;;;;;;;5.60;1.38;;;;;;;;;;4979379;28;20743;-76
2024/04/20 13:31:52;;;;;;;5.00;1.60;;;;;;;;;;4979778;28;20087;-79
2024/04/20 13:34:23;;;;;;;2.65;1.30;;;;;;;;;;4980066;28;20029;-74
2024/04/20 13:37:04;;;;;;;2.33;1.45;;;;;;;;;;4977861;28;20033;-77
2024/04/20 13:40:24;;;;;;;3.33;1.23;;;;;;;;;;4972694;28;20580;-77
2024/04/20 13:43:10;;;;;;;4.60;1.40;;;;;;;;;;4953114;28;20009;-77
2024/04/20 13:45:41;;;;;;;4.80;1.27;;;;;;;;;;4979423;28;20044;-79
2024/04/20 13:48:11;;;;;;;4.05;1.30;;;;;;;;;;4978079;28;20445;-79
2024/04/20 13:50:45;;;;;;;2.05;1.25;;;;;;;;;;4976321;28;20037;-76
2024/04/20 13:53:17;;;;;;;8.80;1.30;;;;;;;;;;4974841;28;20463;-76
2024/04/20 13:55:55;;;;;;;2.17;1.20;;;;;;;;;;4979089;28;20377;-76
2024/04/20 13:58:26;;;;;;;1.92;1.23;;;;;;;;;;4978864;28;20489;-75
2024/04/20 14:00:57;;;;;;;2.33;1.40;;;;;;;;;;4980797;28;20028;-75
2024/04/20 14:03:28;;;;;;;7.25;4.15;;;;;;;;;;4981581;28;20005;-78
2024/04/20 14:06:04;;;;;;;3.30;1.40;;;;;;;;;;4979705;28;20033;-76
2024/04/20 14:08:34;;;;;;;3.15;1.40;;;;;;;;;;4978175;28;20049;-76
2024/04/20 14:11:09;;;;;;;2.50;1.13;;;;;;;;;;4978882;28;20327;-77
2024/04/20 14:13:39;;;;;;;1.95;1.30;;;;;;;;;;4979997;28;20040;-76
2024/04/20 14:16:10;;;;;;;6.72;1.27;;;;;;;;;;4979023;28;20029;-79
2024/04/20 14:19:01;;;;;;;2.55;1.20;;;;;;;;;;4979380;28;20724;-77
2024/04/20 14:25:11;;;;;;;5.75;3.10;;;;;;;;;;4975588;28;20413;-76
2024/04/20 14:32:40;;;;;;;8.77;1.38;;;;;;;;;;4978278;28;20390;-80
2024/04/20 14:35:45;;;;;;;5.07;1.20;;;;;;;;;;4970573;28;20045;-77
2024/04/20 14:38:42;;;;;;;5.57;1.30;;;;;;;;;;4973927;28;20052;-79
2024/04/20 14:41:22;;;;;;;4.70;1.75;;;;;;;;;;4954904;28;20430;-78
2024/04/20 14:43:57;;;;;;;6.97;2.60;;;;;;;;;;4982728;28;20060;-76
2024/04/20 14:46:29;;;;;;;2.92;1.45;;;;;;;;;;4980203;28;20053;-79
2024/04/20 14:49:00;;;;;;;3.95;1.48;;;;;;;;;;4980425;28;20041;-77
2024/04/20 14:51:30;;;;;;;2.63;1.33;;;;;;;;;;4979545;28;20041;-76
2024/04/20 14:54:01;;;;;;;2.55;1.50;;;;;;;;;;4979405;28;20052;-76
2024/04/20 14:56:32;;;;;;;2.65;1.40;;;;;;;;;;4980082;28;20037;-78
2024/04/20 14:59:06;;;;;;;3.25;1.52;;;;;;;;;;4979329;28;20045;-80
2024/04/20 15:01:38;;;;;;;3.63;1.15;;;;;;;;;;4978476;28;20170;-79
2024/04/20 15:04:09;;;;;;;2.53;1.40;;;;;;;;;;4979213;28;20454;-78
2024/04/20 15:06:55;;;;;;;5.78;1.30;;;;;;;;;;4979685;28;20036;-77
2024/04/20 15:13:35;;;;;;;6.57;1.60;;;;;;;;;;4981543;28;20045;-78
2024/04/20 15:16:26;;;;;;;5.97;1.40;;;;;;;;;;4979680;28;20009;-77
2024/04/20 15:18:57;;;;;;;4.97;1.38;;;;;;;;;;4978526;28;20036;-77
2024/04/20 15:21:28;;;;;;;3.47;1.70;;;;;;;;;;4978881;28;20032;-77
2024/04/20 15:23:59;;;;;;;1.30;0.98;;;;;;;;;;4979437;28;20033;-76
2024/04/20 15:26:29;;;;;;;2.03;1.17;;;;;;;;;;4977044;28;20048;-77
2024/04/20 15:29:00;;;;;;;4.45;1.27;;;;;;;;;;4979007;28;20370;-77